sensor_id;sensor_type;location;lat;lon;timestamp;P1;durP1;ratioP1;P2;durP2;ratioP2
1074;SDS011;526;51.392;12.448;2023-05-16T00:02:23;4.97;;;3.40;;
1074;SDS011;526;51.392;12.448;2023-05-16T00:04:49;3.83;;;2.97;;
1074;SDS011;526;51.392;12.448;2023-05-16T00:07:18;8.10;;;2.90;;
1074;SDS011;526;51.392;12.448;2023-05-16T00:09:50;10.33;;;3.73;;
1074;SDS011;526;51.392;12.448;2023-05-16T00:12:20;7.10;;;4.37;;
1074;SDS011;526;51.392;12.448;2023-05-16T00:14:54;7.40;;;3.90;;
1074;SDS011;526;51.392;12.448;2023-05-16T00:17:28;6.33;;;3.63;;
1074;SDS011;526;51.392;12.448;2023-05-16T00:20:00;5.90;;;3.40;;
1074;SDS011;526;51.392;12.448;2023-05-16T00:25:29;6.27;;;3.77;;
1074;SDS011;526;51.392;12.448;2023-05-16T00:28:01;5.03;;;4.67;;
1074;SDS011;526;51.392;12.448;2023-05-16T00:30:32;4.50;;;3.00;;
1074;SDS011;526;51.392;12.448;2023-05-16T00:33:11;8.53;;;3.60;;
1074;SDS011;526;51.392;12.448;2023-05-16T00:35:40;4.63;;;4.10;;
1074;SDS011;526;51.392;12.448;2023-05-16T00:38:05;5.80;;;4.23;;
1074;SDS011;526;51.392;12.448;2023-05-16T00:40:31;8.40;;;3.97;;
1074;SDS011;526;51.392;12.448;2023-05-16T00:42:57;6.93;;;4.67;;
1074;SDS011;526;51.392;12.448;2023-05-16T00:45:22;3.87;;;3.67;;
1074;SDS011;526;51.392;12.448;2023-05-16T00:47:49;4.73;;;3.67;;
1074;SDS011;526;51.392;12.448;2023-05-16T00:50:15;3.40;;;3.20;;
1074;SDS011;526;51.392;12.448;2023-05-16T00:52:41;3.70;;;2.03;;
1074;SDS011;526;51.392;12.448;2023-05-16T00:55:07;5.37;;;4.37;;
1074;SDS011;526;51.392;12.448;2023-05-16T00:57:35;6.10;;;3.43;;
1074;SDS011;526;51.392;12.448;2023-05-16T01:00:01;7.83;;;4.13;;
1074;SDS011;526;51.392;12.448;2023-05-16T01:02:28;8.20;;;4.53;;
1074;SDS011;526;51.392;12.448;2023-05-16T01:04:54;5.83;;;3.37;;
1074;SDS011;526;51.392;12.448;2023-05-16T01:07:20;15.20;;;4.07;;
1074;SDS011;526;51.392;12.448;2023-05-16T01:09:46;2.70;;;2.33;;
1074;SDS011;526;51.392;12.448;2023-05-16T01:12:23;3.93;;;3.77;;
1074;SDS011;526;51.392;12.448;2023-05-16T01:18:02;2.73;;;2.60;;
1074;SDS011;526;51.392;12.448;2023-05-16T01:20:40;5.40;;;3.70;;
1074;SDS011;526;51.392;12.448;2023-05-16T01:23:33;5.40;;;4.03;;
1074;SDS011;526;51.392;12.448;2023-05-16T01:28:47;4.73;;;3.63;;
1074;SDS011;526;51.392;12.448;2023-05-16T01:31:14;4.83;;;4.30;;
1074;SDS011;526;51.392;12.448;2023-05-16T01:33:40;4.77;;;3.27;;
1074;SDS011;526;51.392;12.448;2023-05-16T01:36:17;15.20;;;5.60;;
1074;SDS011;526;51.392;12.448;2023-05-16T01:47:02;3.27;;;2.97;;
1074;SDS011;526;51.392;12.448;2023-05-16T01:49:38;4.80;;;3.60;;
1074;SDS011;526;51.392;12.448;2023-05-16T01:52:10;4.80;;;2.67;;
1074;SDS011;526;51.392;12.448;2023-05-16T01:54:43;19.33;;;4.40;;
1074;SDS011;526;51.392;12.448;2023-05-16T01:57:11;5.50;;;3.97;;
1074;SDS011;526;51.392;12.448;2023-05-16T01:59:37;5.20;;;4.40;;
1074;SDS011;526;51.392;12.448;2023-05-16T02:02:04;13.47;;;3.70;;
1074;SDS011;526;51.392;12.448;2023-05-16T02:04:30;4.57;;;3.40;;
1074;SDS011;526;51.392;12.448;2023-05-16T02:06:55;4.40;;;3.77;;
1074;SDS011;526;51.392;12.448;2023-05-16T02:09:21;5.90;;;4.30;;
1074;SDS011;526;51.392;12.448;2023-05-16T02:11:47;12.67;;;4.97;;
1074;SDS011;526;51.392;12.448;2023-05-16T02:14:12;3.70;;;3.40;;
1074;SDS011;526;51.392;12.448;2023-05-16T02:16:38;4.57;;;3.73;;
1074;SDS011;526;51.392;12.448;2023-05-16T02:19:03;3.93;;;3.73;;
1074;SDS011;526;51.392;12.448;2023-05-16T02:21:29;4.60;;;3.10;;
1074;SDS011;526;51.392;12.448;2023-05-16T02:23:55;5.40;;;3.23;;
1074;SDS011;526;51.392;12.448;2023-05-16T02:26:20;5.43;;;4.13;;
1074;SDS011;526;51.392;12.448;2023-05-16T02:28:46;7.20;;;4.30;;
1074;SDS011;526;51.392;12.448;2023-05-16T02:31:23;5.30;;;4.47;;
1074;SDS011;526;51.392;12.448;2023-05-16T02:33:50;4.50;;;4.17;;
1074;SDS011;526;51.392;12.448;2023-05-16T02:36:15;5.40;;;4.17;;
1074;SDS011;526;51.392;12.448;2023-05-16T02:38:41;5.47;;;4.23;;
1074;SDS011;526;51.392;12.448;2023-05-16T02:41:06;13.47;;;5.73;;
1074;SDS011;526;51.392;12.448;2023-05-16T02:43:32;18.37;;;5.90;;
1074;SDS011;526;51.392;12.448;2023-05-16T02:45:57;9.77;;;7.03;;
1074;SDS011;526;51.392;12.448;2023-05-16T02:48:22;7.73;;;4.63;;
1074;SDS011;526;51.392;12.448;2023-05-16T02:50:48;16.70;;;7.17;;
1074;SDS011;526;51.392;12.448;2023-05-16T02:53:14;8.20;;;6.80;;
1074;SDS011;526;51.392;12.448;2023-05-16T02:55:40;8.53;;;5.90;;
1074;SDS011;526;51.392;12.448;2023-05-16T02:58:05;12.67;;;7.63;;
1074;SDS011;526;51.392;12.448;2023-05-16T03:00:31;7.50;;;6.30;;
1074;SDS011;526;51.392;12.448;2023-05-16T03:02:57;11.07;;;7.87;;
1074;SDS011;526;51.392;12.448;2023-05-16T03:05:22;13.53;;;8.23;;
1074;SDS011;526;51.392;12.448;2023-05-16T03:07:53;12.73;;;8.73;;
1074;SDS011;526;51.392;12.448;2023-05-16T03:10:34;27.17;;;11.63;;
1074;SDS011;526;51.392;12.448;2023-05-16T03:13:02;12.50;;;8.07;;
1074;SDS011;526;51.392;12.448;2023-05-16T03:15:31;14.37;;;8.07;;
1074;SDS011;526;51.392;12.448;2023-05-16T03:18:00;18.33;;;8.70;;
1074;SDS011;526;51.392;12.448;2023-05-16T03:20:31;13.10;;;8.20;;
1074;SDS011;526;51.392;12.448;2023-05-16T03:23:05;8.40;;;5.80;;
1074;SDS011;526;51.392;12.448;2023-05-16T03:25:39;14.43;;;6.40;;
1074;SDS011;526;51.392;12.448;2023-05-16T03:28:07;17.87;;;10.90;;
1074;SDS011;526;51.392;12.448;2023-05-16T03:30:33;16.50;;;8.30;;
1074;SDS011;526;51.392;12.448;2023-05-16T03:33:08;12.87;;;9.00;;
1074;SDS011;526;51.392;12.448;2023-05-16T03:35:34;8.03;;;5.60;;
1074;SDS011;526;51.392;12.448;2023-05-16T03:38:01;19.03;;;8.57;;
1074;SDS011;526;51.392;12.448;2023-05-16T03:40:26;13.53;;;7.97;;
1074;SDS011;526;51.392;12.448;2023-05-16T03:42:54;18.13;;;8.40;;
1074;SDS011;526;51.392;12.448;2023-05-16T03:45:28;12.43;;;5.80;;
1074;SDS011;526;51.392;12.448;2023-05-16T03:47:54;7.47;;;5.20;;
1074;SDS011;526;51.392;12.448;2023-05-16T03:50:20;15.33;;;7.00;;
1074;SDS011;526;51.392;12.448;2023-05-16T03:52:48;10.37;;;6.40;;
1074;SDS011;526;51.392;12.448;2023-05-16T03:55:14;8.50;;;6.23;;
1074;SDS011;526;51.392;12.448;2023-05-16T03:57:40;12.20;;;6.17;;
1074;SDS011;526;51.392;12.448;2023-05-16T04:00:06;14.77;;;5.77;;
1074;SDS011;526;51.392;12.448;2023-05-16T04:02:33;12.00;;;7.90;;
1074;SDS011;526;51.392;12.448;2023-05-16T04:04:58;19.73;;;6.70;;
1074;SDS011;526;51.392;12.448;2023-05-16T04:07:24;11.00;;;5.33;;
1074;SDS011;526;51.392;12.448;2023-05-16T04:09:50;12.47;;;7.53;;
1074;SDS011;526;51.392;12.448;2023-05-16T04:12:16;12.77;;;6.40;;
1074;SDS011;526;51.392;12.448;2023-05-16T04:14:41;6.30;;;4.30;;
1074;SDS011;526;51.392;12.448;2023-05-16T04:17:07;15.50;;;6.00;;
1074;SDS011;526;51.392;12.448;2023-05-16T04:19:33;11.30;;;6.40;;
1074;SDS011;526;51.392;12.448;2023-05-16T04:21:58;5.33;;;4.03;;
1074;SDS011;526;51.392;12.448;2023-05-16T04:24:24;10.93;;;6.10;;
1074;SDS011;526;51.392;12.448;2023-05-16T04:26:52;5.43;;;4.10;;
1074;SDS011;526;51.392;12.448;2023-05-16T04:29:18;10.37;;;5.40;;
1074;SDS011;526;51.392;12.448;2023-05-16T04:31:45;10.03;;;4.83;;
1074;SDS011;526;51.392;12.448;2023-05-16T04:34:10;6.90;;;5.17;;
1074;SDS011;526;51.392;12.448;2023-05-16T04:36:37;4.67;;;3.83;;
1074;SDS011;526;51.392;12.448;2023-05-16T04:39:02;15.13;;;4.37;;
1074;SDS011;526;51.392;12.448;2023-05-16T04:41:28;5.17;;;3.80;;
1074;SDS011;526;51.392;12.448;2023-05-16T04:43:54;5.97;;;4.47;;
1074;SDS011;526;51.392;12.448;2023-05-16T04:46:19;10.30;;;4.13;;
1074;SDS011;526;51.392;12.448;2023-05-16T04:48:45;5.23;;;3.60;;
1074;SDS011;526;51.392;12.448;2023-05-16T04:51:11;8.00;;;4.90;;
1074;SDS011;526;51.392;12.448;2023-05-16T04:53:37;6.40;;;3.40;;
1074;SDS011;526;51.392;12.448;2023-05-16T04:56:02;4.67;;;2.83;;
1074;SDS011;526;51.392;12.448;2023-05-16T04:58:29;6.20;;;4.60;;
1074;SDS011;526;51.392;12.448;2023-05-16T05:00:55;11.53;;;5.63;;
1074;SDS011;526;51.392;12.448;2023-05-16T05:03:21;7.77;;;4.40;;
1074;SDS011;526;51.392;12.448;2023-05-16T05:05:47;2.00;;;1.87;;
1074;SDS011;526;51.392;12.448;2023-05-16T05:08:13;7.83;;;4.87;;
1074;SDS011;526;51.392;12.448;2023-05-16T05:10:38;4.37;;;3.20;;
1074;SDS011;526;51.392;12.448;2023-05-16T05:13:05;9.87;;;4.17;;
1074;SDS011;526;51.392;12.448;2023-05-16T05:15:30;10.50;;;4.03;;
1074;SDS011;526;51.392;12.448;2023-05-16T05:17:56;8.80;;;3.20;;
1074;SDS011;526;51.392;12.448;2023-05-16T05:20:21;8.00;;;6.27;;
1074;SDS011;526;51.392;12.448;2023-05-16T05:22:47;4.13;;;3.93;;
1074;SDS011;526;51.392;12.448;2023-05-16T05:25:12;8.13;;;6.77;;
1074;SDS011;526;51.392;12.448;2023-05-16T05:27:38;4.13;;;3.90;;
1074;SDS011;526;51.392;12.448;2023-05-16T05:30:04;5.43;;;5.13;;
1074;SDS011;526;51.392;12.448;2023-05-16T05:32:30;6.10;;;4.47;;
1074;SDS011;526;51.392;12.448;2023-05-16T05:34:56;3.77;;;3.57;;
1074;SDS011;526;51.392;12.448;2023-05-16T05:37:22;4.33;;;3.97;;
1074;SDS011;526;51.392;12.448;2023-05-16T05:39:47;5.13;;;3.43;;
1074;SDS011;526;51.392;12.448;2023-05-16T05:42:13;4.80;;;3.63;;
1074;SDS011;526;51.392;12.448;2023-05-16T05:44:38;11.37;;;3.30;;
1074;SDS011;526;51.392;12.448;2023-05-16T05:47:05;4.40;;;3.30;;
1074;SDS011;526;51.392;12.448;2023-05-16T05:49:31;2.83;;;2.63;;
1074;SDS011;526;51.392;12.448;2023-05-16T05:51:57;6.70;;;3.17;;
1074;SDS011;526;51.392;12.448;2023-05-16T05:54:22;9.90;;;5.90;;
1074;SDS011;526;51.392;12.448;2023-05-16T05:56:48;4.07;;;3.23;;
1074;SDS011;526;51.392;12.448;2023-05-16T05:59:13;4.07;;;3.43;;
1074;SDS011;526;51.392;12.448;2023-05-16T06:01:39;4.27;;;4.00;;
1074;SDS011;526;51.392;12.448;2023-05-16T06:04:05;4.57;;;3.73;;
1074;SDS011;526;51.392;12.448;2023-05-16T06:06:30;5.67;;;4.67;;
1074;SDS011;526;51.392;12.448;2023-05-16T06:08:56;4.60;;;4.30;;
1074;SDS011;526;51.392;12.448;2023-05-16T06:11:22;3.00;;;2.80;;
1074;SDS011;526;51.392;12.448;2023-05-16T06:13:49;3.17;;;2.80;;
1074;SDS011;526;51.392;12.448;2023-05-16T06:16:15;6.90;;;3.10;;
1074;SDS011;526;51.392;12.448;2023-05-16T06:18:41;6.07;;;3.80;;
1074;SDS011;526;51.392;12.448;2023-05-16T06:21:06;2.60;;;2.40;;
1074;SDS011;526;51.392;12.448;2023-05-16T06:23:32;4.27;;;2.37;;
1074;SDS011;526;51.392;12.448;2023-05-16T06:25:58;3.37;;;2.20;;
1074;SDS011;526;51.392;12.448;2023-05-16T06:28:23;2.53;;;2.17;;
1074;SDS011;526;51.392;12.448;2023-05-16T06:30:49;1.87;;;1.77;;
1074;SDS011;526;51.392;12.448;2023-05-16T06:33:16;2.30;;;2.03;;
1074;SDS011;526;51.392;12.448;2023-05-16T06:35:44;2.63;;;1.70;;
1074;SDS011;526;51.392;12.448;2023-05-16T06:38:09;2.30;;;2.03;;
1074;SDS011;526;51.392;12.448;2023-05-16T06:40:35;2.23;;;2.00;;
1074;SDS011;526;51.392;12.448;2023-05-16T06:43:01;2.73;;;2.20;;
1074;SDS011;526;51.392;12.448;2023-05-16T06:45:27;2.60;;;2.13;;
1074;SDS011;526;51.392;12.448;2023-05-16T06:47:53;1.97;;;1.87;;
1074;SDS011;526;51.392;12.448;2023-05-16T06:50:19;1.60;;;1.50;;
1074;SDS011;526;51.392;12.448;2023-05-16T06:52:45;5.27;;;3.47;;
1074;SDS011;526;51.392;12.448;2023-05-16T06:55:10;2.97;;;2.80;;
1074;SDS011;526;51.392;12.448;2023-05-16T06:57:36;3.70;;;2.60;;
1074;SDS011;526;51.392;12.448;2023-05-16T07:00:02;6.17;;;3.50;;
1074;SDS011;526;51.392;12.448;2023-05-16T07:02:28;9.33;;;3.37;;
1074;SDS011;526;51.392;12.448;2023-05-16T07:04:56;3.77;;;2.47;;
1074;SDS011;526;51.392;12.448;2023-05-16T07:07:22;4.03;;;2.53;;
1074;SDS011;526;51.392;12.448;2023-05-16T07:09:47;4.20;;;2.03;;
1074;SDS011;526;51.392;12.448;2023-05-16T07:12:13;3.43;;;2.87;;
1074;SDS011;526;51.392;12.448;2023-05-16T07:14:38;1.80;;;1.70;;
1074;SDS011;526;51.392;12.448;2023-05-16T07:17:04;2.80;;;2.23;;
1074;SDS011;526;51.392;12.448;2023-05-16T07:19:30;6.63;;;4.23;;
1074;SDS011;526;51.392;12.448;2023-05-16T07:21:56;3.63;;;2.40;;
1074;SDS011;526;51.392;12.448;2023-05-16T07:24:21;4.00;;;2.20;;
1074;SDS011;526;51.392;12.448;2023-05-16T07:26:47;3.10;;;2.90;;
1074;SDS011;526;51.392;12.448;2023-05-16T07:29:12;2.63;;;2.43;;
1074;SDS011;526;51.392;12.448;2023-05-16T07:31:38;4.50;;;2.30;;
1074;SDS011;526;51.392;12.448;2023-05-16T07:34:03;4.03;;;3.83;;
1074;SDS011;526;51.392;12.448;2023-05-16T07:36:29;2.20;;;2.03;;
1074;SDS011;526;51.392;12.448;2023-05-16T07:38:55;2.60;;;2.40;;
1074;SDS011;526;51.392;12.448;2023-05-16T07:41:20;6.90;;;2.93;;
1074;SDS011;526;51.392;12.448;2023-05-16T07:43:46;2.73;;;2.47;;
1074;SDS011;526;51.392;12.448;2023-05-16T07:46:11;7.70;;;4.67;;
1074;SDS011;526;51.392;12.448;2023-05-16T07:48:38;4.60;;;3.20;;
1074;SDS011;526;51.392;12.448;2023-05-16T07:51:03;6.00;;;3.83;;
1074;SDS011;526;51.392;12.448;2023-05-16T07:53:29;3.90;;;2.90;;
1074;SDS011;526;51.392;12.448;2023-05-16T07:55:54;3.63;;;2.63;;
1074;SDS011;526;51.392;12.448;2023-05-16T07:58:20;5.23;;;2.50;;
1074;SDS011;526;51.392;12.448;2023-05-16T08:00:46;2.63;;;1.83;;
1074;SDS011;526;51.392;12.448;2023-05-16T08:03:11;3.20;;;2.33;;
1074;SDS011;526;51.392;12.448;2023-05-16T08:05:37;3.13;;;1.93;;
1074;SDS011;526;51.392;12.448;2023-05-16T08:08:03;2.30;;;2.10;;
1074;SDS011;526;51.392;12.448;2023-05-16T08:10:29;1.67;;;1.30;;
1074;SDS011;526;51.392;12.448;2023-05-16T08:12:55;2.43;;;1.90;;
1074;SDS011;526;51.392;12.448;2023-05-16T08:15:20;1.50;;;1.43;;
1074;SDS011;526;51.392;12.448;2023-05-16T08:17:46;1.70;;;1.60;;
1074;SDS011;526;51.392;12.448;2023-05-16T08:20:11;1.90;;;1.73;;
1074;SDS011;526;51.392;12.448;2023-05-16T08:22:37;2.47;;;2.27;;
1074;SDS011;526;51.392;12.448;2023-05-16T08:25:03;1.60;;;1.50;;
1074;SDS011;526;51.392;12.448;2023-05-16T08:27:29;3.27;;;2.70;;
1074;SDS011;526;51.392;12.448;2023-05-16T08:29:54;3.20;;;2.60;;
1074;SDS011;526;51.392;12.448;2023-05-16T08:32:20;2.83;;;2.63;;
1074;SDS011;526;51.392;12.448;2023-05-16T08:34:46;2.90;;;1.70;;
1074;SDS011;526;51.392;12.448;2023-05-16T08:37:12;2.70;;;2.50;;
1074;SDS011;526;51.392;12.448;2023-05-16T08:39:37;2.27;;;2.10;;
1074;SDS011;526;51.392;12.448;2023-05-16T08:42:03;1.77;;;1.70;;
1074;SDS011;526;51.392;12.448;2023-05-16T08:44:29;2.63;;;2.43;;
1074;SDS011;526;51.392;12.448;2023-05-16T08:46:55;4.10;;;2.67;;
1074;SDS011;526;51.392;12.448;2023-05-16T08:49:23;3.03;;;1.90;;
1074;SDS011;526;51.392;12.448;2023-05-16T08:51:51;1.93;;;1.83;;
1074;SDS011;526;51.392;12.448;2023-05-16T08:54:21;3.07;;;2.10;;
1074;SDS011;526;51.392;12.448;2023-05-16T08:56:46;2.73;;;2.27;;
1074;SDS011;526;51.392;12.448;2023-05-16T08:59:14;3.67;;;1.90;;
1074;SDS011;526;51.392;12.448;2023-05-16T09:01:40;1.33;;;1.30;;
1074;SDS011;526;51.392;12.448;2023-05-16T09:04:06;1.73;;;1.63;;
1074;SDS011;526;51.392;12.448;2023-05-16T09:06:33;2.60;;;2.40;;
1074;SDS011;526;51.392;12.448;2023-05-16T09:08:59;2.10;;;1.30;;
1074;SDS011;526;51.392;12.448;2023-05-16T09:11:26;2.30;;;2.10;;
1074;SDS011;526;51.392;12.448;2023-05-16T09:13:52;2.33;;;2.20;;
1074;SDS011;526;51.392;12.448;2023-05-16T09:16:18;4.27;;;2.50;;
1074;SDS011;526;51.392;12.448;2023-05-16T09:18:46;2.23;;;2.03;;
1074;SDS011;526;51.392;12.448;2023-05-16T09:21:20;2.23;;;2.03;;
1074;SDS011;526;51.392;12.448;2023-05-16T09:23:47;12.90;;;2.93;;
1074;SDS011;526;51.392;12.448;2023-05-16T09:26:21;3.53;;;2.33;;
1074;SDS011;526;51.392;12.448;2023-05-16T09:28:47;1.60;;;1.53;;
1074;SDS011;526;51.392;12.448;2023-05-16T09:31:20;5.23;;;1.53;;
1074;SDS011;526;51.392;12.448;2023-05-16T09:33:50;1.60;;;1.50;;
1074;SDS011;526;51.392;12.448;2023-05-16T09:36:16;1.53;;;1.43;;
1074;SDS011;526;51.392;12.448;2023-05-16T09:38:41;1.00;;;0.90;;
1074;SDS011;526;51.392;12.448;2023-05-16T09:41:08;2.00;;;1.87;;
1074;SDS011;526;51.392;12.448;2023-05-16T09:43:36;2.60;;;1.90;;
1074;SDS011;526;51.392;12.448;2023-05-16T09:46:02;1.10;;;1.00;;
1074;SDS011;526;51.392;12.448;2023-05-16T09:48:28;1.90;;;1.63;;
1074;SDS011;526;51.392;12.448;2023-05-16T09:50:54;2.07;;;1.73;;
1074;SDS011;526;51.392;12.448;2023-05-16T09:53:24;1.40;;;1.30;;
1074;SDS011;526;51.392;12.448;2023-05-16T10:10:33;1.40;;;1.30;;
1074;SDS011;526;51.392;12.448;2023-05-16T10:13:12;1.87;;;1.53;;
1074;SDS011;526;51.392;12.448;2023-05-16T10:18:44;1.53;;;1.43;;
1074;SDS011;526;51.392;12.448;2023-05-16T10:21:22;1.33;;;1.23;;
1074;SDS011;526;51.392;12.448;2023-05-16T10:24:05;13.40;;;1.93;;
1074;SDS011;526;51.392;12.448;2023-05-16T10:26:42;1.30;;;1.30;;
1074;SDS011;526;51.392;12.448;2023-05-16T10:29:13;1.30;;;1.20;;
1074;SDS011;526;51.392;12.448;2023-05-16T10:31:53;1.30;;;1.20;;
1074;SDS011;526;51.392;12.448;2023-05-16T10:34:44;2.67;;;1.60;;
1074;SDS011;526;51.392;12.448;2023-05-16T10:37:32;2.60;;;1.77;;
1074;SDS011;526;51.392;12.448;2023-05-16T10:39:58;1.30;;;1.20;;
1074;SDS011;526;51.392;12.448;2023-05-16T10:42:25;1.37;;;1.27;;
1074;SDS011;526;51.392;12.448;2023-05-16T10:44:54;1.80;;;1.43;;
1074;SDS011;526;51.392;12.448;2023-05-16T10:47:22;2.57;;;2.37;;
1074;SDS011;526;51.392;12.448;2023-05-16T10:49:48;1.63;;;1.63;;
1074;SDS011;526;51.392;12.448;2023-05-16T10:52:14;1.80;;;1.70;;
1074;SDS011;526;51.392;12.448;2023-05-16T10:54:42;3.70;;;1.93;;
1074;SDS011;526;51.392;12.448;2023-05-16T10:57:15;1.80;;;1.70;;
1074;SDS011;526;51.392;12.448;2023-05-16T10:59:45;3.10;;;2.90;;
1074;SDS011;526;51.392;12.448;2023-05-16T11:02:22;5.93;;;2.27;;
1074;SDS011;526;51.392;12.448;2023-05-16T11:04:50;1.70;;;1.60;;
1074;SDS011;526;51.392;12.448;2023-05-16T11:07:17;1.17;;;1.07;;
1074;SDS011;526;51.392;12.448;2023-05-16T11:09:44;33.07;;;1.83;;
1074;SDS011;526;51.392;12.448;2023-05-16T11:12:14;1.23;;;1.13;;
1074;SDS011;526;51.392;12.448;2023-05-16T11:14:40;2.03;;;1.90;;
1074;SDS011;526;51.392;12.448;2023-05-16T11:17:12;14.30;;;3.00;;
1074;SDS011;526;51.392;12.448;2023-05-16T11:19:45;2.73;;;1.30;;
1074;SDS011;526;51.392;12.448;2023-05-16T11:22:20;1.63;;;1.53;;
1074;SDS011;526;51.392;12.448;2023-05-16T11:24:55;1.23;;;1.17;;
1074;SDS011;526;51.392;12.448;2023-05-16T11:27:35;1.97;;;1.53;;
1074;SDS011;526;51.392;12.448;2023-05-16T11:30:11;1.50;;;1.40;;
1074;SDS011;526;51.392;12.448;2023-05-16T11:32:40;8.07;;;1.97;;
1074;SDS011;526;51.392;12.448;2023-05-16T11:35:07;5.17;;;2.30;;
1074;SDS011;526;51.392;12.448;2023-05-16T11:37:34;2.40;;;1.67;;
1074;SDS011;526;51.392;12.448;2023-05-16T11:40:03;2.70;;;2.50;;
1074;SDS011;526;51.392;12.448;2023-05-16T11:42:39;1.00;;;0.90;;
1074;SDS011;526;51.392;12.448;2023-05-16T11:47:36;4.93;;;1.47;;
1074;SDS011;526;51.392;12.448;2023-05-16T11:50:06;1.63;;;1.53;;
1074;SDS011;526;51.392;12.448;2023-05-16T11:52:36;3.07;;;2.87;;
1074;SDS011;526;51.392;12.448;2023-05-16T11:55:03;1.20;;;1.10;;
1074;SDS011;526;51.392;12.448;2023-05-16T11:57:30;6.17;;;1.87;;
1074;SDS011;526;51.392;12.448;2023-05-16T12:00:00;1.67;;;1.63;;
1074;SDS011;526;51.392;12.448;2023-05-16T12:02:37;2.07;;;1.40;;
1074;SDS011;526;51.392;12.448;2023-05-16T12:05:07;5.17;;;1.67;;
1074;SDS011;526;51.392;12.448;2023-05-16T12:07:33;2.50;;;1.50;;
1074;SDS011;526;51.392;12.448;2023-05-16T12:10:03;1.17;;;1.07;;
1074;SDS011;526;51.392;12.448;2023-05-16T12:12:30;1.90;;;1.80;;
1074;SDS011;526;51.392;12.448;2023-05-16T12:14:55;1.47;;;1.37;;
1074;SDS011;526;51.392;12.448;2023-05-16T12:17:21;1.17;;;1.07;;
1074;SDS011;526;51.392;12.448;2023-05-16T12:19:46;1.93;;;1.83;;
1074;SDS011;526;51.392;12.448;2023-05-16T12:22:16;1.57;;;1.47;;
1074;SDS011;526;51.392;12.448;2023-05-16T12:27:37;3.13;;;1.20;;
1074;SDS011;526;51.392;12.448;2023-05-16T12:30:15;3.83;;;3.63;;
1074;SDS011;526;51.392;12.448;2023-05-16T12:33:31;2.37;;;2.17;;
1074;SDS011;526;51.392;12.448;2023-05-16T12:35:43;1.67;;;1.57;;
1074;SDS011;526;51.392;12.448;2023-05-16T12:38:52;1.30;;;1.20;;
1074;SDS011;526;51.392;12.448;2023-05-16T12:41:23;1.10;;;1.00;;
1074;SDS011;526;51.392;12.448;2023-05-16T12:43:49;1.30;;;1.20;;
1074;SDS011;526;51.392;12.448;2023-05-16T12:46:14;2.70;;;1.30;;
1074;SDS011;526;51.392;12.448;2023-05-16T12:48:40;1.57;;;1.20;;
1074;SDS011;526;51.392;12.448;2023-05-16T12:51:10;1.60;;;1.50;;
1074;SDS011;526;51.392;12.448;2023-05-16T12:53:41;6.43;;;1.53;;
1074;SDS011;526;51.392;12.448;2023-05-16T12:56:09;1.70;;;1.00;;
1074;SDS011;526;51.392;12.448;2023-05-16T12:58:35;13.50;;;3.10;;
1074;SDS011;526;51.392;12.448;2023-05-16T13:01:01;3.33;;;1.40;;
1074;SDS011;526;51.392;12.448;2023-05-16T13:03:27;1.30;;;1.20;;
1074;SDS011;526;51.392;12.448;2023-05-16T13:05:53;2.80;;;1.30;;
1074;SDS011;526;51.392;12.448;2023-05-16T13:08:18;15.77;;;2.53;;
1074;SDS011;526;51.392;12.448;2023-05-16T13:10:47;1.30;;;1.10;;
1074;SDS011;526;51.392;12.448;2023-05-16T13:13:12;1.27;;;1.20;;
1074;SDS011;526;51.392;12.448;2023-05-16T13:15:39;1.23;;;1.13;;
1074;SDS011;526;51.392;12.448;2023-05-16T13:18:06;1.10;;;1.00;;
1074;SDS011;526;51.392;12.448;2023-05-16T13:20:32;2.20;;;1.40;;
1074;SDS011;526;51.392;12.448;2023-05-16T13:22:57;1.50;;;1.40;;
1074;SDS011;526;51.392;12.448;2023-05-16T13:25:23;1.00;;;0.90;;
1074;SDS011;526;51.392;12.448;2023-05-16T13:27:48;3.17;;;1.50;;
1074;SDS011;526;51.392;12.448;2023-05-16T13:30:14;3.70;;;1.63;;
1074;SDS011;526;51.392;12.448;2023-05-16T13:32:40;1.37;;;1.30;;
1074;SDS011;526;51.392;12.448;2023-05-16T13:35:06;1.47;;;1.43;;
1074;SDS011;526;51.392;12.448;2023-05-16T13:37:32;3.30;;;1.50;;
1074;SDS011;526;51.392;12.448;2023-05-16T13:39:57;4.10;;;1.70;;
1074;SDS011;526;51.392;12.448;2023-05-16T13:42:23;24.77;;;1.93;;
1074;SDS011;526;51.392;12.448;2023-05-16T13:44:48;1.17;;;1.07;;
1074;SDS011;526;51.392;12.448;2023-05-16T13:47:14;1.40;;;1.30;;
1074;SDS011;526;51.392;12.448;2023-05-16T13:49:40;1.90;;;1.60;;
1074;SDS011;526;51.392;12.448;2023-05-16T13:52:05;1.00;;;0.90;;
1074;SDS011;526;51.392;12.448;2023-05-16T13:54:31;1.87;;;1.20;;
1074;SDS011;526;51.392;12.448;2023-05-16T13:56:57;2.00;;;1.43;;
1074;SDS011;526;51.392;12.448;2023-05-16T13:59:23;0.97;;;0.87;;
1074;SDS011;526;51.392;12.448;2023-05-16T14:01:48;4.30;;;1.80;;
1074;SDS011;526;51.392;12.448;2023-05-16T14:04:14;1.20;;;1.10;;
1074;SDS011;526;51.392;12.448;2023-05-16T14:06:39;7.43;;;2.33;;
1074;SDS011;526;51.392;12.448;2023-05-16T14:09:05;2.70;;;2.03;;
1074;SDS011;526;51.392;12.448;2023-05-16T14:11:32;1.53;;;1.43;;
1074;SDS011;526;51.392;12.448;2023-05-16T14:13:57;1.07;;;0.97;;
1074;SDS011;526;51.392;12.448;2023-05-16T14:16:23;1.33;;;1.30;;
1074;SDS011;526;51.392;12.448;2023-05-16T14:18:49;4.20;;;1.37;;
1074;SDS011;526;51.392;12.448;2023-05-16T14:21:15;1.47;;;1.37;;
1074;SDS011;526;51.392;12.448;2023-05-16T14:23:40;1.37;;;1.23;;
1074;SDS011;526;51.392;12.448;2023-05-16T14:26:06;1.60;;;1.50;;
1074;SDS011;526;51.392;12.448;2023-05-16T14:28:31;2.20;;;1.87;;
1074;SDS011;526;51.392;12.448;2023-05-16T14:30:58;1.67;;;1.07;;
1074;SDS011;526;51.392;12.448;2023-05-16T14:33:24;1.53;;;1.43;;
1074;SDS011;526;51.392;12.448;2023-05-16T14:35:50;2.13;;;1.40;;
1074;SDS011;526;51.392;12.448;2023-05-16T14:38:16;1.10;;;1.00;;
1074;SDS011;526;51.392;12.448;2023-05-16T14:40:41;1.03;;;0.93;;
1074;SDS011;526;51.392;12.448;2023-05-16T14:43:07;6.50;;;1.40;;
1074;SDS011;526;51.392;12.448;2023-05-16T14:45:32;6.97;;;1.37;;
1074;SDS011;526;51.392;12.448;2023-05-16T14:47:58;17.87;;;2.03;;
1074;SDS011;526;51.392;12.448;2023-05-16T14:50:24;6.63;;;1.30;;
1074;SDS011;526;51.392;12.448;2023-05-16T14:52:49;1.60;;;1.50;;
1074;SDS011;526;51.392;12.448;2023-05-16T14:55:15;2.40;;;1.60;;
1074;SDS011;526;51.392;12.448;2023-05-16T14:57:40;1.57;;;1.53;;
1074;SDS011;526;51.392;12.448;2023-05-16T15:00:06;3.20;;;1.57;;
1074;SDS011;526;51.392;12.448;2023-05-16T15:02:34;2.40;;;1.30;;
1074;SDS011;526;51.392;12.448;2023-05-16T15:05:00;3.10;;;1.20;;
1074;SDS011;526;51.392;12.448;2023-05-16T15:07:25;0.90;;;0.80;;
1074;SDS011;526;51.392;12.448;2023-05-16T15:09:51;8.83;;;1.37;;
1074;SDS011;526;51.392;12.448;2023-05-16T15:12:16;1.10;;;1.00;;
1074;SDS011;526;51.392;12.448;2023-05-16T15:14:42;1.13;;;1.13;;
1074;SDS011;526;51.392;12.448;2023-05-16T15:17:08;4.83;;;1.33;;
1074;SDS011;526;51.392;12.448;2023-05-16T15:19:33;6.03;;;1.20;;
1074;SDS011;526;51.392;12.448;2023-05-16T15:21:59;1.20;;;1.10;;
1074;SDS011;526;51.392;12.448;2023-05-16T15:24:26;1.80;;;1.40;;
1074;SDS011;526;51.392;12.448;2023-05-16T15:26:52;1.47;;;1.40;;
1074;SDS011;526;51.392;12.448;2023-05-16T15:29:17;2.10;;;1.30;;
1074;SDS011;526;51.392;12.448;2023-05-16T15:31:44;4.50;;;2.00;;
1074;SDS011;526;51.392;12.448;2023-05-16T15:34:09;0.90;;;0.80;;
1074;SDS011;526;51.392;12.448;2023-05-16T15:36:36;0.90;;;0.80;;
1074;SDS011;526;51.392;12.448;2023-05-16T15:39:01;10.03;;;1.87;;
1074;SDS011;526;51.392;12.448;2023-05-16T15:41:27;3.17;;;1.63;;
1074;SDS011;526;51.392;12.448;2023-05-16T15:43:53;1.30;;;1.20;;
1074;SDS011;526;51.392;12.448;2023-05-16T15:46:19;3.93;;;1.63;;
1074;SDS011;526;51.392;12.448;2023-05-16T15:48:45;1.10;;;1.00;;
1074;SDS011;526;51.392;12.448;2023-05-16T15:51:11;6.63;;;1.33;;
1074;SDS011;526;51.392;12.448;2023-05-16T15:53:40;1.00;;;0.90;;
1074;SDS011;526;51.392;12.448;2023-05-16T15:56:06;1.10;;;1.00;;